Time;durP1;ratioP1;P1;durP2;ratioP2;P2;SDS_P1;SDS_P2;PMS_P1;PMS_P2;Temp;Humidity;BMP_temperature;BMP_pressure;BME280_temperature;BME280_humidity;BME280_pressure;Samples;Min_cycle;Max_cycle;Signal;HPM_P1;HPM_P2
2022/10/30 00:00:04;;;;;;;8.73;3.93;;;;;;;;;;5045466;28;20973;-69
2022/10/30 00:02:30;;;;;;;6.90;3.90;;;;;;;;;;5047280;28;20458;-68
2022/10/30 00:04:56;;;;;;;12.03;3.73;;;;;;;;;;5069089;28;21046;-68
2022/10/30 00:07:22;;;;;;;9.37;4.17;;;;;;;;;;5068816;28;20500;-68
2022/10/30 00:09:48;;;;;;;7.27;5.00;;;;;;;;;;5069937;28;20424;-68
2022/10/30 00:12:14;;;;;;;8.53;4.30;;;;;;;;;;5067762;28;20433;-68
2022/10/30 00:14:40;;;;;;;11.50;4.40;;;;;;;;;;5068917;28;21014;-68
2022/10/30 00:17:06;;;;;;;13.20;3.90;;;;;;;;;;5069955;28;20504;-69
2022/10/30 00:19:32;;;;;;;5.87;4.07;;;;;;;;;;5049719;28;20516;-68
2022/10/30 00:21:58;;;;;;;7.13;4.47;;;;;;;;;;5067992;28;20451;-69
2022/10/30 00:24:24;;;;;;;10.10;4.50;;;;;;;;;;5069815;28;20783;-69
2022/10/30 00:26:50;;;;;;;8.27;4.60;;;;;;;;;;5069518;28;20557;-68
2022/10/30 00:29:16;;;;;;;7.47;5.17;;;;;;;;;;5067903;28;20424;-68
2022/10/30 00:31:42;;;;;;;13.53;4.63;;;;;;;;;;5068765;28;20516;-68
2022/10/30 00:34:07;;;;;;;17.20;4.43;;;;;;;;;;5069216;28;20521;-68
2022/10/30 00:36:33;;;;;;;8.10;4.93;;;;;;;;;;5069505;28;20429;-69
2022/10/30 00:38:59;;;;;;;16.77;4.80;;;;;;;;;;5068603;28;20442;-68
2022/10/30 00:41:25;;;;;;;7.60;4.57;;;;;;;;;;5068578;28;20440;-68
2022/10/30 00:43:52;;;;;;;9.00;4.63;;;;;;;;;;5068983;28;20429;-69
2022/10/30 00:46:26;;;;;;;17.87;5.17;;;;;;;;;;5071163;28;20506;-69
2022/10/30 00:49:12;;;;;;;11.63;4.80;;;;;;;;;;5055879;28;20429;-68
2022/10/30 00:51:41;;;;;;;9.40;4.60;;;;;;;;;;5072355;28;20413;-69
2022/10/30 00:54:07;;;;;;;21.80;4.43;;;;;;;;;;5070877;28;20432;-68
2022/10/30 00:56:34;;;;;;;8.00;4.20;;;;;;;;;;5073468;28;20409;-69
2022/10/30 00:59:06;;;;;;;9.17;3.80;;;;;;;;;;5073589;28;20457;-68
2022/10/30 01:01:34;;;;;;;9.60;4.00;;;;;;;;;;5072316;28;20421;-68
2022/10/30 01:04:02;;;;;;;16.60;5.40;;;;;;;;;;5072900;28;20475;-68
2022/10/30 01:06:29;;;;;;;11.90;3.97;;;;;;;;;;5071020;28;20479;-68
2022/10/30 01:08:55;;;;;;;7.20;4.97;;;;;;;;;;5073451;28;20425;-68
2022/10/30 01:11:21;;;;;;;12.10;4.80;;;;;;;;;;5068413;28;20778;-68
2022/10/30 01:13:49;;;;;;;16.47;5.17;;;;;;;;;;5071335;28;20971;-68
2022/10/30 01:16:33;;;;;;;16.23;6.63;;;;;;;;;;5071743;28;20421;-67
2022/10/30 01:19:15;;;;;;;11.27;4.80;;;;;;;;;;5053599;28;20465;-68
2022/10/30 01:21:48;;;;;;;5.37;4.20;;;;;;;;;;5069604;28;20417;-69
2022/10/30 01:24:14;;;;;;;13.10;3.77;;;;;;;;;;5073037;28;20428;-68
2022/10/30 01:27:03;;;;;;;4.57;4.17;;;;;;;;;;5070673;28;20473;-68
2022/10/30 01:29:46;;;;;;;12.23;3.70;;;;;;;;;;5059214;28;20426;-68
2022/10/30 01:32:12;;;;;;;9.70;5.00;;;;;;;;;;5072324;28;20429;-69
2022/10/30 01:34:43;;;;;;;4.83;3.77;;;;;;;;;;5071585;28;20933;-68
2022/10/30 01:37:13;;;;;;;10.00;3.97;;;;;;;;;;5072999;28;20413;-68
2022/10/30 01:39:40;;;;;;;10.83;4.07;;;;;;;;;;5070380;28;20496;-68
2022/10/30 01:42:25;;;;;;;8.03;5.80;;;;;;;;;;5070841;28;20429;-68
2022/10/30 01:44:51;;;;;;;11.63;3.87;;;;;;;;;;5072201;28;20831;-68
2022/10/30 01:47:29;;;;;;;8.70;3.93;;;;;;;;;;5071914;28;21060;-68
2022/10/30 01:50:03;;;;;;;17.80;4.13;;;;;;;;;;5072779;28;20416;-68
2022/10/30 01:52:29;;;;;;;9.97;3.77;;;;;;;;;;5071904;28;20505;-68
2022/10/30 01:54:55;;;;;;;5.17;3.70;;;;;;;;;;5054037;28;20516;-69
2022/10/30 01:57:24;;;;;;;10.30;4.60;;;;;;;;;;5068917;28;20473;-69
2022/10/30 01:59:50;;;;;;;9.53;3.93;;;;;;;;;;5072047;28;20413;-67
2022/10/30 02:02:16;;;;;;;5.20;3.00;;;;;;;;;;5071629;28;20829;-68
2022/10/30 02:04:43;;;;;;;13.47;3.33;;;;;;;;;;5054343;28;20884;-68
2022/10/30 02:07:10;;;;;;;27.03;3.77;;;;;;;;;;5067427;28;20489;-68
2022/10/30 02:09:36;;;;;;;6.07;3.70;;;;;;;;;;5053345;28;20459;-68
2022/10/30 02:12:02;;;;;;;15.30;5.20;;;;;;;;;;5070617;28;20441;-68
2022/10/30 02:14:30;;;;;;;8.00;4.90;;;;;;;;;;5071492;28;20409;-67
2022/10/30 02:16:58;;;;;;;9.33;4.77;;;;;;;;;;5072053;28;20969;-68
2022/10/30 02:19:24;;;;;;;11.27;4.20;;;;;;;;;;5069698;28;20508;-69
2022/10/30 02:21:50;;;;;;;7.60;5.10;;;;;;;;;;5070421;28;20437;-68
2022/10/30 02:24:16;;;;;;;9.67;4.30;;;;;;;;;;5071817;28;20418;-68
2022/10/30 02:26:42;;;;;;;4.67;3.93;;;;;;;;;;5071037;28;20500;-68
2022/10/30 02:29:08;;;;;;;8.50;4.60;;;;;;;;;;5053234;28;20430;-68
2022/10/30 02:31:35;;;;;;;12.50;4.33;;;;;;;;;;5068466;28;20444;-68
2022/10/30 02:34:01;;;;;;;11.63;3.57;;;;;;;;;;5071391;28;20430;-68
2022/10/30 02:36:27;;;;;;;9.93;4.43;;;;;;;;;;5071833;28;20420;-68
2022/10/30 02:38:54;;;;;;;10.30;3.47;;;;;;;;;;5070235;28;20437;-68
2022/10/30 02:41:20;;;;;;;7.10;3.70;;;;;;;;;;5071196;28;20544;-68
2022/10/30 02:43:46;;;;;;;8.73;5.70;;;;;;;;;;5071374;28;20414;-68
2022/10/30 02:46:12;;;;;;;8.17;4.30;;;;;;;;;;5069071;28;20477;-68
2022/10/30 02:48:38;;;;;;;11.33;4.97;;;;;;;;;;5069657;28;20425;-69
2022/10/30 02:51:04;;;;;;;9.83;5.37;;;;;;;;;;5070613;28;20433;-68
2022/10/30 02:53:30;;;;;;;8.00;4.53;;;;;;;;;;5071157;28;20416;-68
2022/10/30 02:55:56;;;;;;;10.97;4.80;;;;;;;;;;5071212;28;20437;-68
2022/10/30 02:58:22;;;;;;;7.00;4.53;;;;;;;;;;5070000;28;20882;-68
2022/10/30 03:00:48;;;;;;;8.57;4.83;;;;;;;;;;5069647;28;20425;-69
2022/10/30 03:03:14;;;;;;;15.23;4.27;;;;;;;;;;5051132;28;21008;-68
2022/10/30 03:05:40;;;;;;;14.90;4.77;;;;;;;;;;5069550;28;20528;-68
2022/10/30 03:08:06;;;;;;;6.17;4.20;;;;;;;;;;5069728;28;20900;-68
2022/10/30 03:10:32;;;;;;;4.67;3.57;;;;;;;;;;5069722;28;20449;-68
2022/10/30 03:12:58;;;;;;;17.23;4.20;;;;;;;;;;5070778;28;20493;-69
2022/10/30 03:15:24;;;;;;;3.80;3.60;;;;;;;;;;5069759;28;20417;-68
2022/10/30 03:17:51;;;;;;;11.43;4.27;;;;;;;;;;5050645;28;20440;-68
2022/10/30 03:20:17;;;;;;;6.00;3.73;;;;;;;;;;5069342;28;20457;-68
2022/10/30 03:22:43;;;;;;;9.60;4.30;;;;;;;;;;5069653;28;20764;-68
2022/10/30 03:25:09;;;;;;;9.53;3.63;;;;;;;;;;5070093;28;20424;-69
2022/10/30 03:27:35;;;;;;;3.87;3.60;;;;;;;;;;5065498;28;20572;-68
2022/10/30 03:30:01;;;;;;;6.00;3.80;;;;;;;;;;5070216;28;20505;-68
2022/10/30 03:32:27;;;;;;;4.70;3.27;;;;;;;;;;5051228;28;20445;-68
2022/10/30 03:34:53;;;;;;;10.10;3.87;;;;;;;;;;5067297;28;20433;-68
2022/10/30 03:37:19;;;;;;;8.03;4.70;;;;;;;;;;5070468;28;20902;-68
2022/10/30 03:39:45;;;;;;;7.93;4.27;;;;;;;;;;5070421;28;20429;-69
2022/10/30 03:42:11;;;;;;;11.73;3.40;;;;;;;;;;5069969;28;20509;-68
2022/10/30 03:44:37;;;;;;;7.07;3.73;;;;;;;;;;5068193;28;20471;-68
2022/10/30 03:47:03;;;;;;;9.57;3.37;;;;;;;;;;5068212;28;20485;-69
2022/10/30 03:49:29;;;;;;;4.77;2.60;;;;;;;;;;5070415;28;20417;-69
2022/10/30 03:51:55;;;;;;;4.27;3.10;;;;;;;;;;5051873;28;20940;-69
2022/10/30 03:54:21;;;;;;;6.47;3.30;;;;;;;;;;5069723;28;20772;-68
2022/10/30 03:56:47;;;;;;;6.00;3.80;;;;;;;;;;5066870;28;20432;-69
2022/10/30 03:59:13;;;;;;;9.63;3.20;;;;;;;;;;5069644;28;20426;-69
2022/10/30 04:01:39;;;;;;;9.83;3.63;;;;;;;;;;5066650;28;20474;-68
2022/10/30 04:04:05;;;;;;;5.60;3.27;;;;;;;;;;5069863;28;20460;-69
2022/10/30 04:06:30;;;;;;;6.20;3.23;;;;;;;;;;5067996;28;20531;-69
2022/10/30 04:08:56;;;;;;;6.70;3.10;;;;;;;;;;5070082;28;20424;-69
2022/10/30 04:11:22;;;;;;;4.27;3.40;;;;;;;;;;5066158;28;20518;-69
2022/10/30 04:13:48;;;;;;;5.53;3.63;;;;;;;;;;5068541;28;20414;-68
2022/10/30 04:16:14;;;;;;;10.50;3.40;;;;;;;;;;5069479;28;20486;-69
2022/10/30 04:18:40;;;;;;;4.63;3.13;;;;;;;;;;5069805;28;20464;-68
2022/10/30 04:21:06;;;;;;;8.07;2.87;;;;;;;;;;5050349;28;20438;-69
2022/10/30 04:23:32;;;;;;;2.87;2.57;;;;;;;;;;5068417;28;20432;-67
2022/10/30 04:26:00;;;;;;;5.60;3.70;;;;;;;;;;5050155;28;20485;-68
2022/10/30 04:28:26;;;;;;;7.63;2.73;;;;;;;;;;5069724;28;20437;-68
2022/10/30 04:30:52;;;;;;;13.43;3.90;;;;;;;;;;5067447;28;20457;-68
2022/10/30 04:33:18;;;;;;;3.90;3.50;;;;;;;;;;5067738;28;20949;-67
2022/10/30 04:35:44;;;;;;;11.90;3.50;;;;;;;;;;5069442;28;20429;-68
2022/10/30 04:38:11;;;;;;;9.13;3.70;;;;;;;;;;5068888;28;20437;-68
2022/10/30 04:40:38;;;;;;;20.97;5.13;;;;;;;;;;5069236;28;20425;-68
2022/10/30 04:43:06;;;;;;;8.97;4.27;;;;;;;;;;5069508;28;20424;-69
2022/10/30 04:45:32;;;;;;;9.77;4.20;;;;;;;;;;5069142;28;20449;-68
2022/10/30 04:48:12;;;;;;;13.00;3.80;;;;;;;;;;5051505;28;20996;-68
2022/10/30 04:50:38;;;;;;;10.07;3.73;;;;;;;;;;5069129;28;20421;-68
2022/10/30 04:53:05;;;;;;;8.00;4.53;;;;;;;;;;5066573;28;20430;-68
2022/10/30 04:55:31;;;;;;;8.73;4.60;;;;;;;;;;5069705;28;20869;-69
2022/10/30 04:57:58;;;;;;;9.87;6.70;;;;;;;;;;5068407;28;20725;-68
2022/10/30 05:00:24;;;;;;;9.43;4.60;;;;;;;;;;5066796;28;20442;-68
2022/10/30 05:02:50;;;;;;;7.03;3.77;;;;;;;;;;5068448;28;20493;-68
2022/10/30 05:05:16;;;;;;;4.47;4.03;;;;;;;;;;5066483;28;20437;-68
2022/10/30 05:07:42;;;;;;;12.70;4.07;;;;;;;;;;5068540;28;20512;-68
2022/10/30 05:10:13;;;;;;;9.90;5.10;;;;;;;;;;5062699;28;20828;-68
2022/10/30 05:12:39;;;;;;;11.63;4.97;;;;;;;;;;5064097;28;20499;-67
2022/10/30 05:15:05;;;;;;;13.73;4.40;;;;;;;;;;5065131;28;20436;-68
2022/10/30 05:17:31;;;;;;;21.93;9.30;;;;;;;;;;5068540;28;20452;-69
2022/10/30 05:19:57;;;;;;;31.03;12.57;;;;;;;;;;5067988;28;20456;-68
2022/10/30 05:22:23;;;;;;;26.53;11.40;;;;;;;;;;5066764;28;20436;-69
2022/10/30 05:24:49;;;;;;;21.00;11.17;;;;;;;;;;5067230;28;20433;-68
2022/10/30 05:27:15;;;;;;;3.73;3.43;;;;;;;;;;5067417;28;20477;-67
2022/10/30 05:29:41;;;;;;;10.40;3.23;;;;;;;;;;5066053;28;20936;-67
2022/10/30 05:32:07;;;;;;;4.30;3.00;;;;;;;;;;5069718;28;20432;-68
2022/10/30 05:34:33;;;;;;;6.67;3.17;;;;;;;;;;5072180;28;20417;-68
2022/10/30 05:37:00;;;;;;;5.77;2.87;;;;;;;;;;5067771;28;20478;-68
2022/10/30 05:39:26;;;;;;;4.23;2.97;;;;;;;;;;5067115;28;20516;-67
2022/10/30 05:41:52;;;;;;;5.13;3.23;;;;;;;;;;5071273;28;20413;-69
2022/10/30 05:44:18;;;;;;;3.00;2.80;;;;;;;;;;5071903;28;20425;-68
2022/10/30 05:46:44;;;;;;;10.90;3.13;;;;;;;;;;5069095;28;20508;-68
2022/10/30 05:49:10;;;;;;;3.93;2.90;;;;;;;;;;5070184;28;20430;-68
2022/10/30 05:51:39;;;;;;;6.53;3.37;;;;;;;;;;5069616;28;20437;-68
2022/10/30 05:54:05;;;;;;;5.23;3.70;;;;;;;;;;5072200;28;20417;-68
2022/10/30 05:56:31;;;;;;;7.30;3.57;;;;;;;;;;5070338;28;20413;-69
2022/10/30 05:58:58;;;;;;;7.90;2.87;;;;;;;;;;5070609;28;20429;-68
2022/10/30 06:01:24;;;;;;;8.33;2.83;;;;;;;;;;5068929;28;20462;-68
2022/10/30 06:03:50;;;;;;;6.10;3.60;;;;;;;;;;5065522;28;20549;-68
2022/10/30 06:06:16;;;;;;;4.20;2.40;;;;;;;;;;5055044;28;21002;-68
2022/10/30 06:08:42;;;;;;;4.83;2.87;;;;;;;;;;5070614;28;20451;-68
2022/10/30 06:11:07;;;;;;;3.20;3.00;;;;;;;;;;5071935;28;20496;-68
2022/10/30 06:13:33;;;;;;;5.77;2.80;;;;;;;;;;5071571;28;20426;-68
2022/10/30 06:15:59;;;;;;;3.10;2.90;;;;;;;;;;5071442;28;20453;-68
2022/10/30 06:18:25;;;;;;;8.80;3.30;;;;;;;;;;5068774;28;20444;-68
2022/10/30 06:20:51;;;;;;;3.57;2.90;;;;;;;;;;5070566;28;20930;-68
2022/10/30 06:23:17;;;;;;;5.77;2.87;;;;;;;;;;5070823;28;20570;-68
2022/10/30 06:25:43;;;;;;;3.10;2.87;;;;;;;;;;5071818;28;20422;-68
2022/10/30 06:28:10;;;;;;;5.10;2.80;;;;;;;;;;5052432;28;20941;-68
2022/10/30 06:30:36;;;;;;;10.27;4.20;;;;;;;;;;5066511;28;20914;-68
2022/10/30 06:33:04;;;;;;;4.20;3.73;;;;;;;;;;5071497;28;20431;-68
2022/10/30 06:35:30;;;;;;;4.70;2.90;;;;;;;;;;5069980;28;20440;-68
2022/10/30 06:37:59;;;;;;;2.23;2.23;;;;;;;;;;5071769;28;20429;-68
2022/10/30 06:40:25;;;;;;;4.70;2.90;;;;;;;;;;5069526;28;20456;-68
2022/10/30 06:42:52;;;;;;;5.37;3.53;;;;;;;;;;5068978;28;20425;-68
2022/10/30 06:45:19;;;;;;;8.93;4.30;;;;;;;;;;5068733;28;20456;-68
2022/10/30 06:47:45;;;;;;;4.33;3.87;;;;;;;;;;5070411;28;21092;-68
2022/10/30 06:50:12;;;;;;;7.53;4.27;;;;;;;;;;5067998;28;20578;-68
2022/10/30 06:52:38;;;;;;;6.47;4.30;;;;;;;;;;5068941;28;20807;-69
2022/10/30 06:55:04;;;;;;;4.80;3.70;;;;;;;;;;5070506;28;20437;-68
2022/10/30 06:57:30;;;;;;;7.83;4.17;;;;;;;;;;5071198;28;20480;-68
2022/10/30 06:59:56;;;;;;;14.63;3.87;;;;;;;;;;5051376;28;20492;-68
2022/10/30 07:02:22;;;;;;;5.53;3.30;;;;;;;;;;5066331;28;20444;-68
2022/10/30 07:04:48;;;;;;;9.80;3.50;;;;;;;;;;5070451;28;20522;-68
2022/10/30 07:07:14;;;;;;;6.10;3.40;;;;;;;;;;5070868;28;20527;-68
2022/10/30 07:09:41;;;;;;;3.80;3.50;;;;;;;;;;5070219;28;20843;-68
2022/10/30 07:12:08;;;;;;;4.50;3.90;;;;;;;;;;5064196;28;20430;-68
2022/10/30 07:14:34;;;;;;;4.90;4.50;;;;;;;;;;5070229;28;20428;-68
2022/10/30 07:17:00;;;;;;;8.53;3.67;;;;;;;;;;5067853;28;20511;-68
2022/10/30 07:19:26;;;;;;;4.37;4.00;;;;;;;;;;5068303;28;20429;-68
2022/10/30 07:21:52;;;;;;;13.67;4.23;;;;;;;;;;5067695;28;20941;-68
2022/10/30 07:24:18;;;;;;;8.03;3.13;;;;;;;;;;5068393;28;20433;-68
2022/10/30 07:26:44;;;;;;;6.80;4.60;;;;;;;;;;5069727;28;20989;-68
2022/10/30 07:29:10;;;;;;;7.23;5.73;;;;;;;;;;5066922;28;20438;-59
2022/10/30 07:31:36;;;;;;;8.43;4.60;;;;;;;;;;5065850;28;20433;-60
2022/10/30 07:34:02;;;;;;;5.90;4.67;;;;;;;;;;5066742;28;20447;-68
2022/10/30 07:36:28;;;;;;;12.20;5.00;;;;;;;;;;5067832;28;20457;-68
2022/10/30 07:38:54;;;;;;;6.00;4.30;;;;;;;;;;5067909;28;20947;-68
2022/10/30 07:41:20;;;;;;;14.40;4.77;;;;;;;;;;5067604;28;20440;-68
2022/10/30 07:43:46;;;;;;;10.83;4.73;;;;;;;;;;5046619;28;20452;-68
2022/10/30 07:46:13;;;;;;;6.83;4.27;;;;;;;;;;5065431;28;20485;-68
2022/10/30 07:48:39;;;;;;;6.83;4.60;;;;;;;;;;5062621;28;20518;-68
2022/10/30 07:51:06;;;;;;;13.87;4.50;;;;;;;;;;5062007;28;20521;-68
2022/10/30 07:53:33;;;;;;;10.93;4.77;;;;;;;;;;5067784;28;20483;-69
2022/10/30 07:55:58;;;;;;;10.93;4.53;;;;;;;;;;5048523;28;20441;-68
2022/10/30 07:58:24;;;;;;;8.23;4.63;;;;;;;;;;5068716;28;20499;-68
2022/10/30 08:00:50;;;;;;;10.60;5.37;;;;;;;;;;5066337;28;20528;-69
2022/10/30 08:03:16;;;;;;;13.13;4.97;;;;;;;;;;5069119;28;20445;-69
2022/10/30 08:05:42;;;;;;;6.40;4.60;;;;;;;;;;5068509;28;20441;-68
2022/10/30 08:08:08;;;;;;;6.37;4.40;;;;;;;;;;5068885;28;20429;-68
2022/10/30 08:10:35;;;;;;;12.20;4.93;;;;;;;;;;5063070;28;20429;-68
2022/10/30 08:13:01;;;;;;;9.10;4.83;;;;;;;;;;5069598;28;20433;-68
2022/10/30 08:15:27;;;;;;;11.13;4.97;;;;;;;;;;5069659;28;20449;-69
2022/10/30 08:17:54;;;;;;;9.23;4.90;;;;;;;;;;5067680;28;20443;-68
2022/10/30 08:20:21;;;;;;;7.70;4.57;;;;;;;;;;5065588;28;20434;-68
2022/10/30 08:22:51;;;;;;;11.43;5.63;;;;;;;;;;5068040;28;20425;-68
2022/10/30 08:25:18;;;;;;;5.20;4.73;;;;;;;;;;5069708;28;20445;-69
2022/10/30 08:27:51;;;;;;;7.50;5.10;;;;;;;;;;5066871;28;20473;-68
2022/10/30 08:30:17;;;;;;;9.30;5.77;;;;;;;;;;5064568;28;20433;-69
2022/10/30 08:32:43;;;;;;;6.43;5.63;;;;;;;;;;5068463;28;20441;-68
2022/10/30 08:35:09;;;;;;;13.20;6.20;;;;;;;;;;5068672;28;21043;-68
2022/10/30 08:37:35;;;;;;;6.00;4.27;;;;;;;;;;5068331;28;20444;-69
2022/10/30 08:40:01;;;;;;;10.80;5.80;;;;;;;;;;5067787;28;20795;-68
2022/10/30 08:42:27;;;;;;;8.17;6.67;;;;;;;;;;5068006;28;20430;-69
2022/10/30 08:44:53;;;;;;;8.70;5.07;;;;;;;;;;5069048;28;20444;-68
2022/10/30 08:47:19;;;;;;;5.80;4.60;;;;;;;;;;5067785;28;20488;-68
2022/10/30 08:49:45;;;;;;;11.03;5.67;;;;;;;;;;5066085;28;20926;-68
2022/10/30 08:52:10;;;;;;;8.97;6.47;;;;;;;;;;5068106;28;20442;-68
2022/10/30 08:54:36;;;;;;;14.73;5.30;;;;;;;;;;5060343;28;20428;-68
2022/10/30 08:57:02;;;;;;;17.03;5.70;;;;;;;;;;5068689;28;20445;-68
2022/10/30 08:59:28;;;;;;;11.83;6.10;;;;;;;;;;5067231;28;20426;-77
2022/10/30 09:01:54;;;;;;;4.97;4.43;;;;;;;;;;5067577;28;20433;-71
2022/10/30 09:04:21;;;;;;;12.30;5.87;;;;;;;;;;5067508;28;20461;-68
2022/10/30 09:06:46;;;;;;;8.33;5.73;;;;;;;;;;5070388;28;20538;-69
2022/10/30 09:09:13;;;;;;;9.67;5.00;;;;;;;;;;5052491;28;20434;-68
2022/10/30 09:11:39;;;;;;;6.60;6.00;;;;;;;;;;5070612;28;20484;-69
2022/10/30 09:14:05;;;;;;;16.70;6.60;;;;;;;;;;5072383;28;20557;-69
2022/10/30 09:16:31;;;;;;;12.87;5.53;;;;;;;;;;5072290;28;20437;-69
2022/10/30 09:18:57;;;;;;;6.57;5.30;;;;;;;;;;5073371;28;20511;-69
2022/10/30 09:21:23;;;;;;;14.77;5.00;;;;;;;;;;5066493;28;20461;-68
2022/10/30 09:23:49;;;;;;;8.60;5.07;;;;;;;;;;5071702;28;20531;-69
2022/10/30 09:26:15;;;;;;;22.07;5.47;;;;;;;;;;5071468;28;21026;-68
2022/10/30 09:28:41;;;;;;;8.93;4.70;;;;;;;;;;5071802;28;20438;-69
2022/10/30 09:31:07;;;;;;;12.23;5.10;;;;;;;;;;5069546;28;20921;-69
2022/10/30 09:33:33;;;;;;;7.10;4.67;;;;;;;;;;5052544;28;20818;-68
2022/10/30 09:36:01;;;;;;;9.87;4.90;;;;;;;;;;5071961;28;20424;-68
2022/10/30 09:38:28;;;;;;;8.03;5.00;;;;;;;;;;5072082;28;21043;-69
2022/10/30 09:41:13;;;;;;;12.67;5.27;;;;;;;;;;5052358;28;20417;-68
2022/10/30 09:43:42;;;;;;;5.87;4.87;;;;;;;;;;5072241;28;20791;-68
2022/10/30 09:46:27;;;;;;;7.10;4.80;;;;;;;;;;5054184;28;20852;-69
2022/10/30 09:49:12;;;;;;;5.00;4.40;;;;;;;;;;5071539;28;20429;-69
2022/10/30 09:51:38;;;;;;;15.20;4.70;;;;;;;;;;5066760;28;20429;-68
2022/10/30 09:54:18;;;;;;;16.77;4.73;;;;;;;;;;5072564;28;20424;-69
2022/10/30 09:56:45;;;;;;;7.80;3.80;;;;;;;;;;5069188;28;20453;-69
2022/10/30 09:59:28;;;;;;;10.83;3.83;;;;;;;;;;5072230;28;20409;-69
2022/10/30 10:01:54;;;;;;;13.67;6.17;;;;;;;;;;5068572;28;20445;-68
2022/10/30 10:04:32;;;;;;;9.77;5.00;;;;;;;;;;5051931;28;20482;-69
2022/10/30 10:07:08;;;;;;;5.20;3.90;;;;;;;;;;5069655;28;20491;-69
2022/10/30 10:09:36;;;;;;;14.33;6.23;;;;;;;;;;5069534;28;20437;-68
2022/10/30 10:12:06;;;;;;;3.40;3.10;;;;;;;;;;5069129;28;20467;-69
2022/10/30 10:14:34;;;;;;;10.67;5.43;;;;;;;;;;5069739;28;20433;-69
2022/10/30 10:17:02;;;;;;;6.00;3.77;;;;;;;;;;5068850;28;20460;-69
2022/10/30 10:19:32;;;;;;;8.07;5.97;;;;;;;;;;5049323;28;20436;-68
2022/10/30 10:22:02;;;;;;;4.63;3.90;;;;;;;;;;5070241;28;20429;-69
2022/10/30 10:24:28;;;;;;;8.73;5.20;;;;;;;;;;5070698;28;20432;-69
2022/10/30 10:27:20;;;;;;;12.63;3.30;;;;;;;;;;5068908;28;20922;-69
2022/10/30 10:29:52;;;;;;;10.87;3.97;;;;;;;;;;5047239;28;20437;-69
2022/10/30 10:32:28;;;;;;;6.20;3.70;;;;;;;;;;5066165;28;20579;-69
2022/10/30 10:34:56;;;;;;;9.30;3.53;;;;;;;;;;5070993;28;20421;-70
2022/10/30 10:37:41;;;;;;;11.20;4.30;;;;;;;;;;5068716;28;20473;-71
2022/10/30 10:40:16;;;;;;;6.20;4.37;;;;;;;;;;5051362;28;20688;-70
2022/10/30 10:43:00;;;;;;;4.27;3.87;;;;;;;;;;5064950;28;20440;-69
2022/10/30 10:45:49;;;;;;;10.07;3.90;;;;;;;;;;5068930;28;20433;-70
2022/10/30 10:48:34;;;;;;;6.93;3.93;;;;;;;;;;5057324;28;20451;-70
2022/10/30 10:51:17;;;;;;;7.97;3.13;;;;;;;;;;5064588;28;20922;-69
2022/10/30 10:53:49;;;;;;;12.27;3.50;;;;;;;;;;5069721;28;20977;-71
2022/10/30 10:56:15;;;;;;;7.07;4.33;;;;;;;;;;5069104;28;20504;-69
2022/10/30 10:58:48;;;;;;;4.27;3.90;;;;;;;;;;5067846;28;20434;-68
2022/10/30 11:01:16;;;;;;;9.93;4.53;;;;;;;;;;5048784;28;20429;-69
2022/10/30 11:03:52;;;;;;;5.10;3.30;;;;;;;;;;5070968;28;20532;-69
2022/10/30 11:06:19;;;;;;;7.03;4.10;;;;;;;;;;5070134;28;20547;-69
2022/10/30 11:08:45;;;;;;;9.50;4.20;;;;;;;;;;5067366;28;20435;-69
2022/10/30 11:11:11;;;;;;;9.63;4.67;;;;;;;;;;5069082;28;20433;-70
2022/10/30 11:13:39;;;;;;;3.70;3.40;;;;;;;;;;5069674;28;20533;-71
2022/10/30 11:16:21;;;;;;;4.40;4.03;;;;;;;;;;5070921;28;20413;-71
2022/10/30 11:18:48;;;;;;;9.73;3.77;;;;;;;;;;5067845;28;20433;-71
2022/10/30 11:21:24;;;;;;;6.97;3.77;;;;;;;;;;5069791;28;20433;-69
2022/10/30 11:23:50;;;;;;;7.07;4.00;;;;;;;;;;5070643;28;20421;-70
2022/10/30 11:26:16;;;;;;;6.30;3.73;;;;;;;;;;5067807;28;20477;-68
2022/10/30 11:28:45;;;;;;;13.77;5.03;;;;;;;;;;5069190;28;20804;-69
2022/10/30 11:31:22;;;;;;;11.20;4.33;;;;;;;;;;5068360;28;20919;-69
2022/10/30 11:33:49;;;;;;;6.60;3.80;;;;;;;;;;5070157;28;20448;-70
2022/10/30 11:36:16;;;;;;;8.30;3.93;;;;;;;;;;5070746;28;20429;-68
2022/10/30 11:38:42;;;;;;;6.57;4.27;;;;;;;;;;5065632;28;21009;-70
2022/10/30 11:41:12;;;;;;;9.40;3.87;;;;;;;;;;5068262;28;20524;-69
2022/10/30 11:43:39;;;;;;;24.63;4.57;;;;;;;;;;5069412;28;20442;-71
2022/10/30 11:46:08;;;;;;;7.20;3.30;;;;;;;;;;5069993;28;20792;-70
2022/10/30 11:48:36;;;;;;;11.43;3.73;;;;;;;;;;5063928;28;20436;-72
2022/10/30 11:51:03;;;;;;;6.60;3.87;;;;;;;;;;5067319;28;20515;-70
2022/10/30 11:53:35;;;;;;;11.33;3.50;;;;;;;;;;5066806;28;20500;-69
2022/10/30 11:56:01;;;;;;;5.50;3.70;;;;;;;;;;5070014;28;20956;-71
2022/10/30 11:58:32;;;;;;;10.93;3.53;;;;;;;;;;5067446;28;20926;-71
2022/10/30 12:01:03;;;;;;;8.07;3.70;;;;;;;;;;5065405;28;20438;-71
2022/10/30 12:03:34;;;;;;;2.57;2.47;;;;;;;;;;5049020;28;21074;-71
2022/10/30 12:06:07;;;;;;;9.30;3.73;;;;;;;;;;5050701;28;20429;-71
2022/10/30 12:08:33;;;;;;;18.73;4.30;;;;;;;;;;5050087;28;20849;-71
2022/10/30 12:11:02;;;;;;;6.70;3.80;;;;;;;;;;5050781;28;20453;-69
2022/10/30 12:13:32;;;;;;;5.10;3.07;;;;;;;;;;5068402;28;21006;-71
2022/10/30 12:16:09;;;;;;;21.87;2.90;;;;;;;;;;5069959;28;20422;-71
2022/10/30 12:18:35;;;;;;;3.27;2.73;;;;;;;;;;5069116;28;20946;-71
2022/10/30 12:21:01;;;;;;;8.30;3.87;;;;;;;;;;5067296;28;20853;-70
2022/10/30 12:23:28;;;;;;;4.20;2.80;;;;;;;;;;5064945;28;20939;-72
2022/10/30 12:25:55;;;;;;;5.10;4.10;;;;;;;;;;5068364;28;20464;-71
2022/10/30 12:28:28;;;;;;;4.23;2.73;;;;;;;;;;5067920;28;20937;-71
2022/10/30 12:30:57;;;;;;;8.97;4.80;;;;;;;;;;5069225;28;20909;-68
2022/10/30 12:33:34;;;;;;;8.03;3.50;;;;;;;;;;5068031;28;20551;-71
2022/10/30 12:36:03;;;;;;;3.10;2.90;;;;;;;;;;5065849;28;20439;-71
2022/10/30 12:38:35;;;;;;;5.57;2.97;;;;;;;;;;5064896;28;20432;-71
2022/10/30 12:41:11;;;;;;;1.63;1.53;;;;;;;;;;5049934;28;20516;-70
2022/10/30 12:43:37;;;;;;;2.97;2.20;;;;;;;;;;5067565;28;20429;-70
2022/10/30 12:46:10;;;;;;;11.60;3.80;;;;;;;;;;5065226;28;20429;-71
2022/10/30 12:48:39;;;;;;;6.10;4.30;;;;;;;;;;5066090;28;20451;-71
2022/10/30 12:51:08;;;;;;;8.53;2.80;;;;;;;;;;5068172;28;20776;-69
2022/10/30 12:53:43;;;;;;;6.27;2.37;;;;;;;;;;5067602;28;20437;-68
2022/10/30 12:56:11;;;;;;;3.13;2.77;;;;;;;;;;5067404;28;20429;-69
2022/10/30 12:58:37;;;;;;;3.40;2.20;;;;;;;;;;5067229;28;20438;-70
2022/10/30 13:01:12;;;;;;;7.00;2.60;;;;;;;;;;5065608;28;20428;-70
2022/10/30 13:03:45;;;;;;;8.60;2.63;;;;;;;;;;5067632;28;20572;-71
2022/10/30 13:06:17;;;;;;;2.70;2.50;;;;;;;;;;5067670;28;20952;-70
2022/10/30 13:08:59;;;;;;;3.53;1.80;;;;;;;;;;5067263;28;20455;-71
2022/10/30 13:11:32;;;;;;;4.93;3.00;;;;;;;;;;5066365;28;20491;-70
2022/10/30 13:13:58;;;;;;;10.07;3.00;;;;;;;;;;5066698;28;20495;-68
2022/10/30 13:16:29;;;;;;;1.80;1.80;;;;;;;;;;5064486;28;20441;-69
2022/10/30 13:19:08;;;;;;;5.80;3.40;;;;;;;;;;5066652;28;20795;-69
2022/10/30 13:21:49;;;;;;;3.30;2.17;;;;;;;;;;5067259;28;20819;-69
2022/10/30 13:24:20;;;;;;;8.80;2.80;;;;;;;;;;5066932;28;20499;-69
2022/10/30 13:26:54;;;;;;;12.00;3.40;;;;;;;;;;5065595;28;20505;-70
2022/10/30 13:29:25;;;;;;;4.50;2.20;;;;;;;;;;5067138;28;20445;-71
2022/10/30 13:32:10;;;;;;;5.40;2.00;;;;;;;;;;5065477;28;20422;-69
2022/10/30 13:34:41;;;;;;;4.63;2.43;;;;;;;;;;5068595;28;20461;-70
2022/10/30 13:37:21;;;;;;;2.60;2.30;;;;;;;;;;5066137;28;20433;-70
2022/10/30 13:39:59;;;;;;;3.23;2.93;;;;;;;;;;5046651;28;20961;-69
2022/10/30 13:42:28;;;;;;;2.90;2.70;;;;;;;;;;5066242;28;20440;-69
2022/10/30 13:44:57;;;;;;;5.07;3.50;;;;;;;;;;5068579;28;20413;-71
2022/10/30 13:47:23;;;;;;;3.07;2.87;;;;;;;;;;5067393;28;20480;-69
2022/10/30 13:49:54;;;;;;;5.83;2.77;;;;;;;;;;5063717;28;20436;-70
2022/10/30 13:52:21;;;;;;;9.83;2.50;;;;;;;;;;5065528;28;20179;-70
2022/10/30 13:55:02;;;;;;;2.93;2.67;;;;;;;;;;5070742;28;20430;-69
2022/10/30 13:57:46;;;;;;;5.33;3.00;;;;;;;;;;5053977;28;20942;-70
2022/10/30 14:00:13;;;;;;;6.90;1.70;;;;;;;;;;5070008;28;20437;-70
2022/10/30 14:02:52;;;;;;;3.40;1.53;;;;;;;;;;5063507;28;20513;-70
2022/10/30 14:05:41;;;;;;;1.50;1.50;;;;;;;;;;5064230;28;20448;-70
2022/10/30 14:08:17;;;;;;;8.00;2.23;;;;;;;;;;5063105;28;20485;-69
2022/10/30 14:10:48;;;;;;;1.90;1.80;;;;;;;;;;5068088;28;20436;-69
2022/10/30 14:13:43;;;;;;;2.20;2.10;;;;;;;;;;5068615;28;20421;-69
2022/10/30 14:16:29;;;;;;;3.10;2.60;;;;;;;;;;5069534;28;20434;-69
2022/10/30 14:19:05;;;;;;;1.33;1.33;;;;;;;;;;5069587;28;20427;-69
2022/10/30 14:21:50;;;;;;;9.50;2.20;;;;;;;;;;5067464;28;20805;-71
2022/10/30 14:24:16;;;;;;;2.10;2.00;;;;;;;;;;5064771;28;20422;-69
2022/10/30 14:26:45;;;;;;;5.10;2.00;;;;;;;;;;5064788;28;20485;-69
2022/10/30 14:29:31;;;;;;;2.90;1.90;;;;;;;;;;5051707;28;20859;-69
2022/10/30 14:31:57;;;;;;;5.43;1.87;;;;;;;;;;5066935;28;20970;-71
2022/10/30 14:34:43;;;;;;;2.87;2.67;;;;;;;;;;5067888;28;20432;-68
2022/10/30 14:37:09;;;;;;;1.70;1.60;;;;;;;;;;5066767;28;20428;-69
2022/10/30 14:39:42;;;;;;;1.30;1.30;;;;;;;;;;5070871;28;20945;-69
2022/10/30 14:42:14;;;;;;;8.03;2.20;;;;;;;;;;5065422;28;20793;-68
2022/10/30 14:44:46;;;;;;;1.37;1.37;;;;;;;;;;5052282;28;20512;-68
2022/10/30 14:47:27;;;;;;;1.83;1.70;;;;;;;;;;5047360;28;20489;-69